sensor_id;sensor_type;location;lat;lon;timestamp;temperature;humidity
29577;DHT22;16509;53.862;10.672;2023-07-13T03:36:35;15.30;99.90
29577;DHT22;16509;53.862;10.672;2023-07-13T03:39:02;15.30;99.90
29577;DHT22;16509;53.862;10.672;2023-07-13T03:41:28;15.40;99.90
29577;DHT22;16509;53.862;10.672;2023-07-13T03:43:54;15.80;99.90
29577;DHT22;16509;53.862;10.672;2023-07-13T03:46:20;15.30;99.90
29577;DHT22;16509;53.862;10.672;2023-07-13T03:48:46;15.70;99.90
29577;DHT22;16509;53.862;10.672;2023-07-13T03:51:14;15.40;99.90
29577;DHT22;16509;53.862;10.672;2023-07-13T03:53:41;14.80;99.90
29577;DHT22;16509;53.862;10.672;2023-07-13T03:56:07;15.40;99.90
29577;DHT22;16509;53.862;10.672;2023-07-13T03:58:37;15.50;99.90
29577;DHT22;16509;53.862;10.672;2023-07-13T04:01:04;15.50;99.90
29577;DHT22;16509;53.862;10.672;2023-07-13T04:03:31;15.50;99.90
29577;DHT22;16509;53.862;10.672;2023-07-13T04:05:59;15.80;99.90
29577;DHT22;16509;53.862;10.672;2023-07-13T04:08:30;18.50;99.90
29577;DHT22;16509;53.862;10.672;2023-07-13T04:10:57;15.50;99.90
29577;DHT22;16509;53.862;10.672;2023-07-13T04:15:49;15.60;99.90
29577;DHT22;16509;53.862;10.672;2023-07-13T04:18:15;15.40;99.90
29577;DHT22;16509;53.862;10.672;2023-07-13T04:20:40;15.70;99.90
29577;DHT22;16509;53.862;10.672;2023-07-13T04:23:06;15.70;99.90
29577;DHT22;16509;53.862;10.672;2023-07-13T04:25:31;15.80;99.90
29577;DHT22;16509;53.862;10.672;2023-07-13T04:27:57;15.90;99.90
29577;DHT22;16509;53.862;10.672;2023-07-13T04:30:22;15.90;99.90
29577;DHT22;16509;53.862;10.672;2023-07-13T04:32:51;15.90;99.90
29577;DHT22;16509;53.862;10.672;2023-07-13T04:35:19;16.20;99.90
29577;DHT22;16509;53.862;10.672;2023-07-13T04:37:49;16.10;99.90
29577;DHT22;16509;53.862;10.672;2023-07-13T04:40:17;16.20;99.90
29577;DHT22;16509;53.862;10.672;2023-07-13T04:42:43;16.20;99.90
29577;DHT22;16509;53.862;10.672;2023-07-13T04:45:09;16.30;99.90
29577;DHT22;16509;53.862;10.672;2023-07-13T04:47:35;16.30;99.90
29577;DHT22;16509;53.862;10.672;2023-07-13T04:50:01;16.30;99.90
29577;DHT22;16509;53.862;10.672;2023-07-13T04:52:26;18.50;99.90
29577;DHT22;16509;53.862;10.672;2023-07-13T04:54:52;15.60;99.90
29577;DHT22;16509;53.862;10.672;2023-07-13T04:57:18;17.90;99.90
29577;DHT22;16509;53.862;10.672;2023-07-13T04:59:43;18.70;99.90
29577;DHT22;16509;53.862;10.672;2023-07-13T05:02:09;16.90;99.90
29577;DHT22;16509;53.862;10.672;2023-07-13T05:04:35;17.00;99.90
29577;DHT22;16509;53.862;10.672;2023-07-13T05:07:00;17.00;99.90
29577;DHT22;16509;53.862;10.672;2023-07-13T05:09:26;17.00;99.90
29577;DHT22;16509;53.862;10.672;2023-07-13T05:11:52;17.10;99.90
29577;DHT22;16509;53.862;10.672;2023-07-13T05:14:17;17.10;99.90
29577;DHT22;16509;53.862;10.672;2023-07-13T05:16:43;17.10;99.90
29577;DHT22;16509;53.862;10.672;2023-07-13T05:19:09;17.10;99.90
29577;DHT22;16509;53.862;10.672;2023-07-13T05:21:35;17.20;99.90
29577;DHT22;16509;53.862;10.672;2023-07-13T05:24:00;18.30;99.90
29577;DHT22;16509;53.862;10.672;2023-07-13T05:26:26;18.30;99.90
29577;DHT22;16509;53.862;10.672;2023-07-13T05:28:52;17.40;99.90
29577;DHT22;16509;53.862;10.672;2023-07-13T05:31:17;17.20;99.90
29577;DHT22;16509;53.862;10.672;2023-07-13T05:33:43;18.90;99.90
29577;DHT22;16509;53.862;10.672;2023-07-13T05:36:08;18.10;99.90
29577;DHT22;16509;53.862;10.672;2023-07-13T05:38:34;17.30;99.90
29577;DHT22;16509;53.862;10.672;2023-07-13T05:41:00;17.50;99.90
29577;DHT22;16509;53.862;10.672;2023-07-13T05:43:26;18.90;99.90
29577;DHT22;16509;53.862;10.672;2023-07-13T05:45:53;17.50;99.90
29577;DHT22;16509;53.862;10.672;2023-07-13T05:48:19;18.50;99.90
29577;DHT22;16509;53.862;10.672;2023-07-13T05:50:45;19.40;99.90
29577;DHT22;16509;53.862;10.672;2023-07-13T05:53:12;17.80;99.90
29577;DHT22;16509;53.862;10.672;2023-07-13T05:55:42;17.80;99.90
29577;DHT22;16509;53.862;10.672;2023-07-13T05:58:07;17.70;99.90
29577;DHT22;16509;53.862;10.672;2023-07-13T06:00:33;17.80;99.90
29577;DHT22;16509;53.862;10.672;2023-07-13T06:02:59;17.90;99.90
29577;DHT22;16509;53.862;10.672;2023-07-13T06:05:24;19.20;99.90
29577;DHT22;16509;53.862;10.672;2023-07-13T06:07:50;18.20;99.90
29577;DHT22;16509;53.862;10.672;2023-07-13T06:10:15;18.40;99.90
29577;DHT22;16509;53.862;10.672;2023-07-13T06:12:41;18.50;99.90
29577;DHT22;16509;53.862;10.672;2023-07-13T06:15:07;18.70;99.90
29577;DHT22;16509;53.862;10.672;2023-07-13T06:17:33;18.80;99.90
29577;DHT22;16509;53.862;10.672;2023-07-13T06:19:58;18.80;99.90
29577;DHT22;16509;53.862;10.672;2023-07-13T06:22:24;18.90;99.90
29577;DHT22;16509;53.862;10.672;2023-07-13T06:24:49;19.10;99.90
29577;DHT22;16509;53.862;10.672;2023-07-13T06:27:15;19.20;99.90
29577;DHT22;16509;53.862;10.672;2023-07-13T06:29:41;19.30;99.90
29577;DHT22;16509;53.862;10.672;2023-07-13T06:32:10;19.60;99.90
29577;DHT22;16509;53.862;10.672;2023-07-13T06:34:36;20.60;99.90
29577;DHT22;16509;53.862;10.672;2023-07-13T06:37:02;20.00;99.90
29577;DHT22;16509;53.862;10.672;2023-07-13T06:39:27;20.20;99.90
29577;DHT22;16509;53.862;10.672;2023-07-13T06:41:53;20.70;99.90
29577;DHT22;16509;53.862;10.672;2023-07-13T06:44:18;20.90;99.90
29577;DHT22;16509;53.862;10.672;2023-07-13T06:46:44;21.20;99.90
29577;DHT22;16509;53.862;10.672;2023-07-13T06:49:09;21.40;99.90
29577;DHT22;16509;53.862;10.672;2023-07-13T06:51:35;21.30;99.90
29577;DHT22;16509;53.862;10.672;2023-07-13T06:54:00;21.10;99.90
29577;DHT22;16509;53.862;10.672;2023-07-13T06:56:26;23.20;99.90
29577;DHT22;16509;53.862;10.672;2023-07-13T06:58:51;21.90;99.90
29577;DHT22;16509;53.862;10.672;2023-07-13T07:01:17;22.00;99.90
29577;DHT22;16509;53.862;10.672;2023-07-13T07:03:42;20.90;99.90
29577;DHT22;16509;53.862;10.672;2023-07-13T07:06:17;23.10;99.90
29577;DHT22;16509;53.862;10.672;2023-07-13T07:08:43;21.90;99.90
29577;DHT22;16509;53.862;10.672;2023-07-13T07:11:17;20.70;99.90
29577;DHT22;16509;53.862;10.672;2023-07-13T07:13:43;20.70;99.90
29577;DHT22;16509;53.862;10.672;2023-07-13T07:16:09;21.20;99.90
29577;DHT22;16509;53.862;10.672;2023-07-13T07:18:35;20.40;99.90
29577;DHT22;16509;53.862;10.672;2023-07-13T07:21:01;20.30;99.90
29577;DHT22;16509;53.862;10.672;2023-07-13T07:23:26;20.90;99.90
29577;DHT22;16509;53.862;10.672;2023-07-13T07:25:52;20.70;99.90
29577;DHT22;16509;53.862;10.672;2023-07-13T07:28:18;20.50;99.90
29577;DHT22;16509;53.862;10.672;2023-07-13T07:30:44;20.40;99.90
29577;DHT22;16509;53.862;10.672;2023-07-13T07:33:10;20.40;99.90
29577;DHT22;16509;53.862;10.672;2023-07-13T07:35:36;20.50;99.90
29577;DHT22;16509;53.862;10.672;2023-07-13T07:38:02;20.70;99.90
29577;DHT22;16509;53.862;10.672;2023-07-13T07:40:28;20.70;99.90
29577;DHT22;16509;53.862;10.672;2023-07-13T07:42:53;20.60;99.90
29577;DHT22;16509;53.862;10.672;2023-07-13T07:45:20;20.80;99.90
29577;DHT22;16509;53.862;10.672;2023-07-13T07:47:45;20.90;99.90
29577;DHT22;16509;53.862;10.672;2023-07-13T07:50:11;20.90;99.90
29577;DHT22;16509;53.862;10.672;2023-07-13T07:52:37;20.80;99.90
29577;DHT22;16509;53.862;10.672;2023-07-13T07:55:04;20.90;99.90
29577;DHT22;16509;53.862;10.672;2023-07-13T07:57:30;21.00;99.90
29577;DHT22;16509;53.862;10.672;2023-07-13T07:59:56;21.60;99.90
29577;DHT22;16509;53.862;10.672;2023-07-13T08:02:21;23.10;99.90
29577;DHT22;16509;53.862;10.672;2023-07-13T08:04:47;21.10;99.90
29577;DHT22;16509;53.862;10.672;2023-07-13T08:07:13;21.40;99.90
29577;DHT22;16509;53.862;10.672;2023-07-13T08:09:38;21.20;99.90
29577;DHT22;16509;53.862;10.672;2023-07-13T08:12:04;24.50;99.90
29577;DHT22;16509;53.862;10.672;2023-07-13T08:14:30;21.40;99.90
29577;DHT22;16509;53.862;10.672;2023-07-13T08:16:55;21.60;99.90
29577;DHT22;16509;53.862;10.672;2023-07-13T08:19:21;21.70;99.90
29577;DHT22;16509;53.862;10.672;2023-07-13T08:21:46;22.00;99.90
29577;DHT22;16509;53.862;10.672;2023-07-13T08:24:14;22.20;99.90
29577;DHT22;16509;53.862;10.672;2023-07-13T08:26:39;22.20;99.90
29577;DHT22;16509;53.862;10.672;2023-07-13T08:29:05;22.30;99.90
29577;DHT22;16509;53.862;10.672;2023-07-13T08:31:30;22.30;99.90
29577;DHT22;16509;53.862;10.672;2023-07-13T08:33:56;22.30;99.90
29577;DHT22;16509;53.862;10.672;2023-07-13T08:36:21;22.40;99.90
29577;DHT22;16509;53.862;10.672;2023-07-13T08:38:47;22.50;99.90
29577;DHT22;16509;53.862;10.672;2023-07-13T08:41:16;22.60;99.90
29577;DHT22;16509;53.862;10.672;2023-07-13T08:43:47;22.50;99.90
29577;DHT22;16509;53.862;10.672;2023-07-13T08:46:19;22.50;99.90
29577;DHT22;16509;53.862;10.672;2023-07-13T08:48:52;22.30;99.90
29577;DHT22;16509;53.862;10.672;2023-07-13T08:51:44;22.40;99.90
29577;DHT22;16509;53.862;10.672;2023-07-13T08:54:27;22.70;99.90
29577;DHT22;16509;53.862;10.672;2023-07-13T08:56:54;22.70;99.90
29577;DHT22;16509;53.862;10.672;2023-07-13T08:59:27;22.60;99.90
29577;DHT22;16509;53.862;10.672;2023-07-13T09:02:26;22.60;99.90
29577;DHT22;16509;53.862;10.672;2023-07-13T09:05:00;22.80;99.90
29577;DHT22;16509;53.862;10.672;2023-07-13T09:08:00;23.00;99.90
29577;DHT22;16509;53.862;10.672;2023-07-13T09:10:30;23.30;99.90
29577;DHT22;16509;53.862;10.672;2023-07-13T09:16:23;23.20;99.90
29577;DHT22;16509;53.862;10.672;2023-07-13T09:18:52;23.30;99.90
29577;DHT22;16509;53.862;10.672;2023-07-13T09:21:27;23.50;99.90
29577;DHT22;16509;53.862;10.672;2023-07-13T09:23:58;23.90;99.90
29577;DHT22;16509;53.862;10.672;2023-07-13T09:26:28;24.00;99.90
29577;DHT22;16509;53.862;10.672;2023-07-13T09:29:16;24.00;99.90
29577;DHT22;16509;53.862;10.672;2023-07-13T09:31:49;24.10;99.90
29577;DHT22;16509;53.862;10.672;2023-07-13T09:34:16;24.20;99.90
29577;DHT22;16509;53.862;10.672;2023-07-13T09:36:42;24.30;99.90
29577;DHT22;16509;53.862;10.672;2023-07-13T09:39:15;24.40;99.90
29577;DHT22;16509;53.862;10.672;2023-07-13T09:42:03;24.70;99.90
29577;DHT22;16509;53.862;10.672;2023-07-13T09:44:37;24.40;99.90
29577;DHT22;16509;53.862;10.672;2023-07-13T09:47:16;24.40;99.90
29577;DHT22;16509;53.862;10.672;2023-07-13T09:49:42;24.30;99.90
29577;DHT22;16509;53.862;10.672;2023-07-13T09:52:12;24.30;99.90
29577;DHT22;16509;53.862;10.672;2023-07-13T09:54:39;24.00;99.90
29577;DHT22;16509;53.862;10.672;2023-07-13T09:57:17;23.90;99.90
29577;DHT22;16509;53.862;10.672;2023-07-13T09:59:47;24.30;99.90
29577;DHT22;16509;53.862;10.672;2023-07-13T10:02:32;24.40;99.90
29577;DHT22;16509;53.862;10.672;2023-07-13T10:05:13;24.40;99.90
29577;DHT22;16509;53.862;10.672;2023-07-13T10:07:43;24.20;99.90
29577;DHT22;16509;53.862;10.672;2023-07-13T10:10:21;24.80;99.90
29577;DHT22;16509;53.862;10.672;2023-07-13T10:12:48;24.30;99.90
29577;DHT22;16509;53.862;10.672;2023-07-13T10:15:22;24.30;99.90
29577;DHT22;16509;53.862;10.672;2023-07-13T10:17:52;24.00;99.90
29577;DHT22;16509;53.862;10.672;2023-07-13T10:20:21;23.60;99.90
29577;DHT22;16509;53.862;10.672;2023-07-13T10:22:59;23.30;99.90
29577;DHT22;16509;53.862;10.672;2023-07-13T10:25:33;23.50;99.90
29577;DHT22;16509;53.862;10.672;2023-07-13T10:28:25;22.90;99.90
29577;DHT22;16509;53.862;10.672;2023-07-13T10:30:53;23.50;99.90
29577;DHT22;16509;53.862;10.672;2023-07-13T10:33:19;23.50;99.90
29577;DHT22;16509;53.862;10.672;2023-07-13T10:35:46;23.70;99.90
29577;DHT22;16509;53.862;10.672;2023-07-13T10:38:18;23.70;99.90
29577;DHT22;16509;53.862;10.672;2023-07-13T10:43:26;24.00;99.90
29577;DHT22;16509;53.862;10.672;2023-07-13T10:45:52;24.20;99.90
29577;DHT22;16509;53.862;10.672;2023-07-13T10:48:21;24.30;99.90
29577;DHT22;16509;53.862;10.672;2023-07-13T10:50:51;24.30;99.90
29577;DHT22;16509;53.862;10.672;2023-07-13T10:53:32;24.60;99.90
29577;DHT22;16509;53.862;10.672;2023-07-13T10:58:47;24.70;99.90
29577;DHT22;16509;53.862;10.672;2023-07-13T11:04:03;24.90;99.90
29577;DHT22;16509;53.862;10.672;2023-07-13T11:06:36;25.10;99.90
29577;DHT22;16509;53.862;10.672;2023-07-13T11:09:32;25.40;99.90
29577;DHT22;16509;53.862;10.672;2023-07-13T11:12:06;24.50;99.90
29577;DHT22;16509;53.862;10.672;2023-07-13T11:14:42;24.40;99.90
29577;DHT22;16509;53.862;10.672;2023-07-13T11:23:15;23.60;99.90
29577;DHT22;16509;53.862;10.672;2023-07-13T11:25:43;22.60;99.90
29577;DHT22;16509;53.862;10.672;2023-07-13T11:30:43;21.90;99.90
29577;DHT22;16509;53.862;10.672;2023-07-13T11:33:20;21.50;99.90
29577;DHT22;16509;53.862;10.672;2023-07-13T11:35:49;21.10;99.90
29577;DHT22;16509;53.862;10.672;2023-07-13T11:38:20;21.00;99.90
29577;DHT22;16509;53.862;10.672;2023-07-13T11:40:47;21.00;99.90
29577;DHT22;16509;53.862;10.672;2023-07-13T11:43:15;21.00;99.90
29577;DHT22;16509;53.862;10.672;2023-07-13T11:45:44;21.30;99.90
29577;DHT22;16509;53.862;10.672;2023-07-13T11:48:36;21.30;99.90
29577;DHT22;16509;53.862;10.672;2023-07-13T11:51:05;21.20;99.90
29577;DHT22;16509;53.862;10.672;2023-07-13T11:53:38;21.20;99.90
29577;DHT22;16509;53.862;10.672;2023-07-13T11:56:05;20.90;99.90
29577;DHT22;16509;53.862;10.672;2023-07-13T11:58:31;20.60;99.90
29577;DHT22;16509;53.862;10.672;2023-07-13T12:00:59;20.30;99.90
29577;DHT22;16509;53.862;10.672;2023-07-13T12:06:03;20.20;99.90
29577;DHT22;16509;53.862;10.672;2023-07-13T12:08:31;20.40;99.90
29577;DHT22;16509;53.862;10.672;2023-07-13T12:11:14;20.30;99.90
29577;DHT22;16509;53.862;10.672;2023-07-13T12:13:41;20.60;99.90
29577;DHT22;16509;53.862;10.672;2023-07-13T12:16:31;20.70;99.90
29577;DHT22;16509;53.862;10.672;2023-07-13T12:19:01;20.90;99.90
29577;DHT22;16509;53.862;10.672;2023-07-13T12:21:32;21.20;99.90
29577;DHT22;16509;53.862;10.672;2023-07-13T12:23:59;21.50;99.90
29577;DHT22;16509;53.862;10.672;2023-07-13T12:26:28;21.60;99.90
29577;DHT22;16509;53.862;10.672;2023-07-13T12:28:55;21.80;99.90
29577;DHT22;16509;53.862;10.672;2023-07-13T12:31:42;21.70;99.90
29577;DHT22;16509;53.862;10.672;2023-07-13T12:34:12;21.60;99.90
29577;DHT22;16509;53.862;10.672;2023-07-13T12:36:45;21.50;99.90
29577;DHT22;16509;53.862;10.672;2023-07-13T12:39:18;21.20;99.90
29577;DHT22;16509;53.862;10.672;2023-07-13T12:41:44;21.30;99.90
29577;DHT22;16509;53.862;10.672;2023-07-13T12:44:29;21.20;99.90
29577;DHT22;16509;53.862;10.672;2023-07-13T12:47:04;21.40;99.90
29577;DHT22;16509;53.862;10.672;2023-07-13T12:49:33;21.40;99.90
29577;DHT22;16509;53.862;10.672;2023-07-13T12:52:03;21.40;99.90
29577;DHT22;16509;53.862;10.672;2023-07-13T12:54:30;21.40;99.90
29577;DHT22;16509;53.862;10.672;2023-07-13T12:56:57;21.30;99.90
29577;DHT22;16509;53.862;10.672;2023-07-13T12:59:25;21.30;99.90
29577;DHT22;16509;53.862;10.672;2023-07-13T13:01:53;20.90;99.90
29577;DHT22;16509;53.862;10.672;2023-07-13T13:06:47;20.40;99.90
29577;DHT22;16509;53.862;10.672;2023-07-13T13:09:15;20.20;99.90
29577;DHT22;16509;53.862;10.672;2023-07-13T13:11:42;19.90;99.90
29577;DHT22;16509;53.862;10.672;2023-07-13T13:14:08;19.50;99.90
29577;DHT22;16509;53.862;10.672;2023-07-13T13:16:50;19.50;99.90
29577;DHT22;16509;53.862;10.672;2023-07-13T13:19:27;19.20;99.90
29577;DHT22;16509;53.862;10.672;2023-07-13T13:21:55;19.00;99.90
29577;DHT22;16509;53.862;10.672;2023-07-13T13:24:24;18.70;99.90
29577;DHT22;16509;53.862;10.672;2023-07-13T13:26:52;18.70;99.90
29577;DHT22;16509;53.862;10.672;2023-07-13T13:29:23;18.10;99.90
29577;DHT22;16509;53.862;10.672;2023-07-13T13:31:52;18.10;99.90
29577;DHT22;16509;53.862;10.672;2023-07-13T13:34:19;17.80;99.90
29577;DHT22;16509;53.862;10.672;2023-07-13T13:36:47;17.30;99.90
29577;DHT22;16509;53.862;10.672;2023-07-13T13:39:22;16.80;99.90
29577;DHT22;16509;53.862;10.672;2023-07-13T13:41:50;17.00;99.90
29577;DHT22;16509;53.862;10.672;2023-07-13T13:44:17;16.90;99.90
29577;DHT22;16509;53.862;10.672;2023-07-13T13:46:46;17.00;99.90
29577;DHT22;16509;53.862;10.672;2023-07-13T13:49:15;17.20;99.90
29577;DHT22;16509;53.862;10.672;2023-07-13T13:54:12;17.40;99.90
29577;DHT22;16509;53.862;10.672;2023-07-13T13:56:38;17.40;99.90
29577;DHT22;16509;53.862;10.672;2023-07-13T14:01:31;17.40;99.90
29577;DHT22;16509;53.862;10.672;2023-07-13T14:03:56;17.60;99.90
29577;DHT22;16509;53.862;10.672;2023-07-13T14:06:22;17.70;99.90
29577;DHT22;16509;53.862;10.672;2023-07-13T14:08:48;17.80;99.90
29577;DHT22;16509;53.862;10.672;2023-07-13T14:11:20;17.60;99.90
29577;DHT22;16509;53.862;10.672;2023-07-13T14:13:50;17.90;99.90
29577;DHT22;16509;53.862;10.672;2023-07-13T14:16:21;17.90;99.90
29577;DHT22;16509;53.862;10.672;2023-07-13T14:18:49;17.60;99.90
29577;DHT22;16509;53.862;10.672;2023-07-13T14:21:20;17.80;99.90
29577;DHT22;16509;53.862;10.672;2023-07-13T14:23:47;18.00;99.90
29577;DHT22;16509;53.862;10.672;2023-07-13T14:26:16;18.20;99.90
29577;DHT22;16509;53.862;10.672;2023-07-13T14:28:44;18.20;99.90
29577;DHT22;16509;53.862;10.672;2023-07-13T14:31:14;18.20;99.90
29577;DHT22;16509;53.862;10.672;2023-07-13T14:36:27;18.90;99.90
29577;DHT22;16509;53.862;10.672;2023-07-13T14:41:19;18.70;99.90
29577;DHT22;16509;53.862;10.672;2023-07-13T14:43:46;18.70;99.90
29577;DHT22;16509;53.862;10.672;2023-07-13T14:46:29;19.00;99.90
29577;DHT22;16509;53.862;10.672;2023-07-13T14:49:01;18.90;99.90
29577;DHT22;16509;53.862;10.672;2023-07-13T14:51:27;18.90;99.90
29577;DHT22;16509;53.862;10.672;2023-07-13T14:53:52;18.90;99.90
29577;DHT22;16509;53.862;10.672;2023-07-13T14:56:18;18.90;99.90
29577;DHT22;16509;53.862;10.672;2023-07-13T14:58:43;18.90;99.90
29577;DHT22;16509;53.862;10.672;2023-07-13T15:01:13;19.00;99.90
29577;DHT22;16509;53.862;10.672;2023-07-13T15:03:43;18.90;99.90
29577;DHT22;16509;53.862;10.672;2023-07-13T15:06:11;19.10;99.90
29577;DHT22;16509;53.862;10.672;2023-07-13T15:08:36;19.10;99.90
29577;DHT22;16509;53.862;10.672;2023-07-13T15:11:03;19.10;99.90
29577;DHT22;16509;53.862;10.672;2023-07-13T15:13:30;19.40;99.90
29577;DHT22;16509;53.862;10.672;2023-07-13T15:15:56;19.80;99.90
29577;DHT22;16509;53.862;10.672;2023-07-13T15:18:23;20.90;99.90
29577;DHT22;16509;53.862;10.672;2023-07-13T15:20:51;19.60;99.90
29577;DHT22;16509;53.862;10.672;2023-07-13T15:23:18;19.50;99.90
29577;DHT22;16509;53.862;10.672;2023-07-13T15:25:44;21.40;99.90
29577;DHT22;16509;53.862;10.672;2023-07-13T15:28:11;19.80;99.90
29577;DHT22;16509;53.862;10.672;2023-07-13T15:30:42;19.60;99.90
29577;DHT22;16509;53.862;10.672;2023-07-13T15:33:14;21.20;99.90
29577;DHT22;16509;53.862;10.672;2023-07-13T15:35:43;21.70;99.90
29577;DHT22;16509;53.862;10.672;2023-07-13T15:38:21;19.60;99.90
29577;DHT22;16509;53.862;10.672;2023-07-13T15:40:48;20.90;99.90
29577;DHT22;16509;53.862;10.672;2023-07-13T15:43:16;19.60;99.90
29577;DHT22;16509;53.862;10.672;2023-07-13T15:45:43;19.50;99.90
29577;DHT22;16509;53.862;10.672;2023-07-13T15:48:21;19.60;99.90
29577;DHT22;16509;53.862;10.672;2023-07-13T15:50:52;19.50;99.90
29577;DHT22;16509;53.862;10.672;2023-07-13T15:53:24;19.70;99.90
29577;DHT22;16509;53.862;10.672;2023-07-13T15:55:50;19.70;99.90
29577;DHT22;16509;53.862;10.672;2023-07-13T15:58:16;19.60;99.90
29577;DHT22;16509;53.862;10.672;2023-07-13T16:00:42;19.50;99.90
29577;DHT22;16509;53.862;10.672;2023-07-13T16:03:08;19.50;99.90
29577;DHT22;16509;53.862;10.672;2023-07-13T16:05:34;19.60;99.90
29577;DHT22;16509;53.862;10.672;2023-07-13T16:08:01;19.50;99.90
29577;DHT22;16509;53.862;10.672;2023-07-13T16:10:33;19.60;99.90
29577;DHT22;16509;53.862;10.672;2023-07-13T16:13:00;22.40;99.90
29577;DHT22;16509;53.862;10.672;2023-07-13T16:15:26;20.40;99.90
29577;DHT22;16509;53.862;10.672;2023-07-13T16:17:52;20.40;99.90
29577;DHT22;16509;53.862;10.672;2023-07-13T16:20:18;20.30;99.90
29577;DHT22;16509;53.862;10.672;2023-07-13T16:22:48;20.80;99.90
29577;DHT22;16509;53.862;10.672;2023-07-13T16:25:18;21.50;99.90
29577;DHT22;16509;53.862;10.672;2023-07-13T16:27:47;20.00;99.90
29577;DHT22;16509;53.862;10.672;2023-07-13T16:30:23;20.10;99.90
29577;DHT22;16509;53.862;10.672;2023-07-13T16:32:49;20.10;99.90
29577;DHT22;16509;53.862;10.672;2023-07-13T16:35:25;20.30;99.90
29577;DHT22;16509;53.862;10.672;2023-07-13T16:37:51;21.90;99.90
29577;DHT22;16509;53.862;10.672;2023-07-13T16:40:23;21.70;99.90
29577;DHT22;16509;53.862;10.672;2023-07-13T16:42:50;20.30;99.90
29577;DHT22;16509;53.862;10.672;2023-07-13T16:45:18;20.20;99.90
29577;DHT22;16509;53.862;10.672;2023-07-13T16:47:52;20.30;99.90
29577;DHT22;16509;53.862;10.672;2023-07-13T16:50:21;20.40;99.90
29577;DHT22;16509;53.862;10.672;2023-07-13T16:52:48;20.30;99.90
29577;DHT22;16509;53.862;10.672;2023-07-13T16:55:15;20.20;99.90
29577;DHT22;16509;53.862;10.672;2023-07-13T16:57:43;20.30;99.90
29577;DHT22;16509;53.862;10.672;2023-07-13T17:00:27;20.30;99.90
29577;DHT22;16509;53.862;10.672;2023-07-13T17:03:02;20.20;99.90
29577;DHT22;16509;53.862;10.672;2023-07-13T17:05:35;21.60;99.90
29577;DHT22;16509;53.862;10.672;2023-07-13T17:08:02;20.20;99.90
29577;DHT22;16509;53.862;10.672;2023-07-13T17:10:35;20.20;99.90
29577;DHT22;16509;53.862;10.672;2023-07-13T17:13:00;23.50;99.90
29577;DHT22;16509;53.862;10.672;2023-07-13T17:15:27;20.20;99.90
29577;DHT22;16509;53.862;10.672;2023-07-13T17:17:54;20.10;99.90
29577;DHT22;16509;53.862;10.672;2023-07-13T17:20:30;20.90;99.90
29577;DHT22;16509;53.862;10.672;2023-07-13T17:22:56;20.30;99.90
29577;DHT22;16509;53.862;10.672;2023-07-13T17:25:22;21.70;99.90
29577;DHT22;16509;53.862;10.672;2023-07-13T17:27:48;21.30;99.90
29577;DHT22;16509;53.862;10.672;2023-07-13T17:30:19;20.60;99.90
29577;DHT22;16509;53.862;10.672;2023-07-13T17:32:47;20.30;99.90
29577;DHT22;16509;53.862;10.672;2023-07-13T17:35:26;21.90;99.90
29577;DHT22;16509;53.862;10.672;2023-07-13T17:37:54;20.30;99.90
29577;DHT22;16509;53.862;10.672;2023-07-13T17:40:19;20.10;99.90
29577;DHT22;16509;53.862;10.672;2023-07-13T17:42:48;20.30;99.90
29577;DHT22;16509;53.862;10.672;2023-07-13T17:45:15;20.30;99.90
29577;DHT22;16509;53.862;10.672;2023-07-13T17:47:46;20.20;99.90
29577;DHT22;16509;53.862;10.672;2023-07-13T17:50:15;20.30;99.90
29577;DHT22;16509;53.862;10.672;2023-07-13T17:52:42;20.20;99.90
29577;DHT22;16509;53.862;10.672;2023-07-13T17:55:13;20.10;99.90
29577;DHT22;16509;53.862;10.672;2023-07-13T17:57:40;20.10;99.90
29577;DHT22;16509;53.862;10.672;2023-07-13T18:00:06;20.10;99.90
29577;DHT22;16509;53.862;10.672;2023-07-13T18:02:51;20.10;99.90
29577;DHT22;16509;53.862;10.672;2023-07-13T18:05:17;20.00;99.90
29577;DHT22;16509;53.862;10.672;2023-07-13T18:07:44;19.90;99.90
29577;DHT22;16509;53.862;10.672;2023-07-13T18:10:14;19.90;99.90
29577;DHT22;16509;53.862;10.672;2023-07-13T18:12:40;19.90;99.90
29577;DHT22;16509;53.862;10.672;2023-07-13T18:15:09;20.10;99.90
29577;DHT22;16509;53.862;10.672;2023-07-13T18:17:35;19.80;99.90
29577;DHT22;16509;53.862;10.672;2023-07-13T18:20:03;19.70;99.90
29577;DHT22;16509;53.862;10.672;2023-07-13T18:22:37;19.70;99.90
29577;DHT22;16509;53.862;10.672;2023-07-13T18:25:13;19.60;99.90
29577;DHT22;16509;53.862;10.672;2023-07-13T18:27:40;19.60;99.90
29577;DHT22;16509;53.862;10.672;2023-07-13T18:30:08;21.80;99.90
29577;DHT22;16509;53.862;10.672;2023-07-13T18:32:35;19.50;99.90
29577;DHT22;16509;53.862;10.672;2023-07-13T18:35:03;20.80;99.90
29577;DHT22;16509;53.862;10.672;2023-07-13T18:37:30;19.50;99.90
29577;DHT22;16509;53.862;10.672;2023-07-13T18:39:56;19.30;99.90
29577;DHT22;16509;53.862;10.672;2023-07-13T18:42:22;19.40;99.90
29577;DHT22;16509;53.862;10.672;2023-07-13T18:44:49;19.40;99.90
29577;DHT22;16509;53.862;10.672;2023-07-13T18:47:18;19.30;99.90
29577;DHT22;16509;53.862;10.672;2023-07-13T18:49:49;20.40;99.90
29577;DHT22;16509;53.862;10.672;2023-07-13T18:52:19;19.70;99.90
29577;DHT22;16509;53.862;10.672;2023-07-13T18:54:47;19.20;99.90
29577;DHT22;16509;53.862;10.672;2023-07-13T18:57:13;19.10;99.90
29577;DHT22;16509;53.862;10.672;2023-07-13T18:59:38;19.30;99.90
29577;DHT22;16509;53.862;10.672;2023-07-13T19:02:12;19.10;99.90
29577;DHT22;16509;53.862;10.672;2023-07-13T19:04:38;19.00;99.90
29577;DHT22;16509;53.862;10.672;2023-07-13T19:07:10;19.20;99.90
29577;DHT22;16509;53.862;10.672;2023-07-13T19:09:36;18.90;99.90
29577;DHT22;16509;53.862;10.672;2023-07-13T19:12:10;20.80;99.90
29577;DHT22;16509;53.862;10.672;2023-07-13T19:14:40;18.90;99.90
29577;DHT22;16509;53.862;10.672;2023-07-13T19:17:09;18.70;99.90
29577;DHT22;16509;53.862;10.672;2023-07-13T19:19:35;18.60;99.90
29577;DHT22;16509;53.862;10.672;2023-07-13T19:22:00;20.80;99.90
29577;DHT22;16509;53.862;10.672;2023-07-13T19:24:28;18.50;99.90
29577;DHT22;16509;53.862;10.672;2023-07-13T19:26:54;18.40;99.90
29577;DHT22;16509;53.862;10.672;2023-07-13T19:29:23;18.70;99.90
29577;DHT22;16509;53.862;10.672;2023-07-13T19:31:49;18.50;99.90
29577;DHT22;16509;53.862;10.672;2023-07-13T19:34:24;18.40;99.90
29577;DHT22;16509;53.862;10.672;2023-07-13T19:37:01;18.40;99.90
29577;DHT22;16509;53.862;10.672;2023-07-13T19:39:35;18.30;99.90